<?xml version="1.0" encoding="utf-8"?>
<gpx xmlns:xsi="http://www.w3.org/2001/XMLSchema-instance" xmlns:xsd="http://www.w3.org/2001/XMLSchema" version="1.1" creator="Shapelink.com" xmlns="http://www.topografix.com/GPX/1/1" xmlns:gpxtpx="http://www.garmin.com/xmlschemas/TrackPointExtension/v1">
  <metadata>
    <name>Løping 2.37 km, 2012-03-26</name>
    <desc></desc>
    <author><name>Mikael Blom</name></author> 
    <time>2012-03-26T19:04:14Z</time>
  </metadata>
  <trk>
    <name>Løping 2.37 km, 2012-03-26</name>
    <trkseg>
      <trkpt lat="59.9550442" lon="17.7143537">
        <ele>43.3966</ele>
        <time>2012-03-26T19:04:14Z</time>
      </trkpt>
      <trkpt lat="59.9549316" lon="17.7145127">
        <ele>43.3966</ele>
        <time>2012-03-26T19:04:20Z</time>
      </trkpt>
      <trkpt lat="59.954913" lon="17.7145556">
        <ele>43.3966</ele>
        <time>2012-03-26T19:04:21Z</time>
      </trkpt>
      <trkpt lat="59.9547994" lon="17.7147632">
        <ele>44.8386</ele>
        <time>2012-03-26T19:04:26Z</time>
      </trkpt>
      <trkpt lat="59.9547181" lon="17.7149597">
        <ele>45.3192</ele>
        <time>2012-03-26T19:04:31Z</time>
      </trkpt>
      <trkpt lat="59.9546671" lon="17.7151563">
        <ele>45.3192</ele>
        <time>2012-03-26T19:04:35Z</time>
      </trkpt>
      <trkpt lat="59.9546195" lon="17.7153645">
        <ele>46.2806</ele>
        <time>2012-03-26T19:04:39Z</time>
      </trkpt>
      <trkpt lat="59.9546242" lon="17.7155694">
        <ele>48.684</ele>
        <time>2012-03-26T19:04:43Z</time>
      </trkpt>
      <trkpt lat="59.9546057" lon="17.7158418">
        <ele>49.6453</ele>
        <time>2012-03-26T19:04:48Z</time>
      </trkpt>
      <trkpt lat="59.954599" lon="17.7160031">
        <ele>49.6453</ele>
        <time>2012-03-26T19:04:51Z</time>
      </trkpt>
      <trkpt lat="59.954616" lon="17.7161572">
        <ele>50.126</ele>
        <time>2012-03-26T19:04:54Z</time>
      </trkpt>
      <trkpt lat="59.9545766" lon="17.7163455">
        <ele>51.0872</ele>
        <time>2012-03-26T19:04:58Z</time>
      </trkpt>
      <trkpt lat="59.9545244" lon="17.7166084">
        <ele>51.5679</ele>
        <time>2012-03-26T19:05:04Z</time>
      </trkpt>
      <trkpt lat="59.9545087" lon="17.7167477">
        <ele>53.0098</ele>
        <time>2012-03-26T19:05:07Z</time>
      </trkpt>
      <trkpt lat="59.9544892" lon="17.7168437">
        <ele>53.0098</ele>
        <time>2012-03-26T19:05:09Z</time>
      </trkpt>
      <trkpt lat="59.9544761" lon="17.716938">
        <ele>53.0098</ele>
        <time>2012-03-26T19:05:11Z</time>
      </trkpt>
      <trkpt lat="59.9544057" lon="17.7172244">
        <ele>54.4518</ele>
        <time>2012-03-26T19:05:17Z</time>
      </trkpt>
      <trkpt lat="59.954392" lon="17.7172683">
        <ele>54.9324</ele>
        <time>2012-03-26T19:05:18Z</time>
      </trkpt>
      <trkpt lat="59.9543176" lon="17.7175186">
        <ele>55.8938</ele>
        <time>2012-03-26T19:05:24Z</time>
      </trkpt>
      <trkpt lat="59.9542425" lon="17.7176972">
        <ele>55.4131</ele>
        <time>2012-03-26T19:05:29Z</time>
      </trkpt>
      <trkpt lat="59.9541638" lon="17.7178899">
        <ele>55.4131</ele>
        <time>2012-03-26T19:05:34Z</time>
      </trkpt>
      <trkpt lat="59.9540922" lon="17.7180746">
        <ele>55.4131</ele>
        <time>2012-03-26T19:05:39Z</time>
      </trkpt>
      <trkpt lat="59.95403" lon="17.7183173">
        <ele>55.4131</ele>
        <time>2012-03-26T19:05:44Z</time>
      </trkpt>
      <trkpt lat="59.9539644" lon="17.7185235">
        <ele>55.4131</ele>
        <time>2012-03-26T19:05:49Z</time>
      </trkpt>
      <trkpt lat="59.9539265" lon="17.718696">
        <ele>53.9712</ele>
        <time>2012-03-26T19:05:53Z</time>
      </trkpt>
      <trkpt lat="59.9538929" lon="17.7189303">
        <ele>53.9712</ele>
        <time>2012-03-26T19:05:58Z</time>
      </trkpt>
      <trkpt lat="59.9538458" lon="17.7191523">
        <ele>53.9712</ele>
        <time>2012-03-26T19:06:03Z</time>
      </trkpt>
      <trkpt lat="59.953802" lon="17.71928">
        <ele>53.0098</ele>
        <time>2012-03-26T19:06:06Z</time>
      </trkpt>
      <trkpt lat="59.9537349" lon="17.7194897">
        <ele>52.5292</ele>
        <time>2012-03-26T19:06:11Z</time>
      </trkpt>
      <trkpt lat="59.9536722" lon="17.719757">
        <ele>53.4905</ele>
        <time>2012-03-26T19:06:17Z</time>
      </trkpt>
      <trkpt lat="59.9536604" lon="17.7197983">
        <ele>53.4905</ele>
        <time>2012-03-26T19:06:18Z</time>
      </trkpt>
      <trkpt lat="59.9535748" lon="17.7199771">
        <ele>52.5292</ele>
        <time>2012-03-26T19:06:23Z</time>
      </trkpt>
      <trkpt lat="59.9535308" lon="17.7201297">
        <ele>52.5292</ele>
        <time>2012-03-26T19:06:27Z</time>
      </trkpt>
      <trkpt lat="59.9534619" lon="17.7202947">
        <ele>51.5679</ele>
        <time>2012-03-26T19:06:31Z</time>
      </trkpt>
      <trkpt lat="59.9533899" lon="17.7205986">
        <ele>51.0872</ele>
        <time>2012-03-26T19:06:38Z</time>
      </trkpt>
      <trkpt lat="59.9533672" lon="17.7206924">
        <ele>51.0872</ele>
        <time>2012-03-26T19:06:40Z</time>
      </trkpt>
      <trkpt lat="59.9533603" lon="17.7209494">
        <ele>52.5292</ele>
        <time>2012-03-26T19:06:45Z</time>
      </trkpt>
      <trkpt lat="59.953327" lon="17.7212482">
        <ele>54.9324</ele>
        <time>2012-03-26T19:06:51Z</time>
      </trkpt>
      <trkpt lat="59.9532522" lon="17.7214602">
        <ele>54.4518</ele>
        <time>2012-03-26T19:06:56Z</time>
      </trkpt>
      <trkpt lat="59.9531726" lon="17.7216384">
        <ele>55.4131</ele>
        <time>2012-03-26T19:07:01Z</time>
      </trkpt>
      <trkpt lat="59.9530429" lon="17.7218202">
        <ele>56.3745</ele>
        <time>2012-03-26T19:07:07Z</time>
      </trkpt>
      <trkpt lat="59.9529369" lon="17.7219486">
        <ele>55.8938</ele>
        <time>2012-03-26T19:07:12Z</time>
      </trkpt>
      <trkpt lat="59.9527957" lon="17.722134">
        <ele>54.4518</ele>
        <time>2012-03-26T19:07:18Z</time>
      </trkpt>
      <trkpt lat="59.9526916" lon="17.7223031">
        <ele>51.5679</ele>
        <time>2012-03-26T19:07:24Z</time>
      </trkpt>
      <trkpt lat="59.9526132" lon="17.7224693">
        <ele>48.2034</ele>
        <time>2012-03-26T19:07:29Z</time>
      </trkpt>
      <trkpt lat="59.9525458" lon="17.7226649">
        <ele>45.3192</ele>
        <time>2012-03-26T19:07:34Z</time>
      </trkpt>
      <trkpt lat="59.9525034" lon="17.722811">
        <ele>43.3966</ele>
        <time>2012-03-26T19:07:38Z</time>
      </trkpt>
      <trkpt lat="59.9524854" lon="17.7229142">
        <ele>43.3966</ele>
        <time>2012-03-26T19:07:40Z</time>
      </trkpt>
      <trkpt lat="59.9525034" lon="17.7231557">
        <ele>45.3192</ele>
        <time>2012-03-26T19:07:45Z</time>
      </trkpt>
      <trkpt lat="59.9525564" lon="17.7234096">
        <ele>46.7612</ele>
        <time>2012-03-26T19:07:51Z</time>
      </trkpt>
      <trkpt lat="59.9526051" lon="17.7235255">
        <ele>47.7225</ele>
        <time>2012-03-26T19:07:54Z</time>
      </trkpt>
      <trkpt lat="59.9526783" lon="17.7237274">
        <ele>48.684</ele>
        <time>2012-03-26T19:07:59Z</time>
      </trkpt>
      <trkpt lat="59.9526941" lon="17.7238716">
        <ele>48.2034</ele>
        <time>2012-03-26T19:08:02Z</time>
      </trkpt>
      <trkpt lat="59.9526683" lon="17.7241111">
        <ele>49.1646</ele>
        <time>2012-03-26T19:08:07Z</time>
      </trkpt>
      <trkpt lat="59.9526123" lon="17.7242833">
        <ele>49.1646</ele>
        <time>2012-03-26T19:08:11Z</time>
      </trkpt>
      <trkpt lat="59.9525286" lon="17.7245347">
        <ele>50.126</ele>
        <time>2012-03-26T19:08:17Z</time>
      </trkpt>
      <trkpt lat="59.9524134" lon="17.724732">
        <ele>48.684</ele>
        <time>2012-03-26T19:08:23Z</time>
      </trkpt>
      <trkpt lat="59.9523319" lon="17.7248491">
        <ele>47.7225</ele>
        <time>2012-03-26T19:08:27Z</time>
      </trkpt>
      <trkpt lat="59.9522658" lon="17.7249733">
        <ele>47.7225</ele>
        <time>2012-03-26T19:08:31Z</time>
      </trkpt>
      <trkpt lat="59.9522275" lon="17.7250332">
        <ele>47.7225</ele>
        <time>2012-03-26T19:08:33Z</time>
      </trkpt>
      <trkpt lat="59.9521721" lon="17.7251812">
        <ele>48.684</ele>
        <time>2012-03-26T19:08:37Z</time>
      </trkpt>
      <trkpt lat="59.9520835" lon="17.7253815">
        <ele>50.126</ele>
        <time>2012-03-26T19:08:43Z</time>
      </trkpt>
      <trkpt lat="59.951984" lon="17.7255441">
        <ele>49.6453</ele>
        <time>2012-03-26T19:08:49Z</time>
      </trkpt>
      <trkpt lat="59.9518838" lon="17.7257457">
        <ele>47.7225</ele>
        <time>2012-03-26T19:08:55Z</time>
      </trkpt>
      <trkpt lat="59.951774" lon="17.7258957">
        <ele>47.7225</ele>
        <time>2012-03-26T19:09:01Z</time>
      </trkpt>
      <trkpt lat="59.9517324" lon="17.7259441">
        <ele>47.2418</ele>
        <time>2012-03-26T19:09:03Z</time>
      </trkpt>
      <trkpt lat="59.9516367" lon="17.7260865">
        <ele>47.2418</ele>
        <time>2012-03-26T19:09:08Z</time>
      </trkpt>
      <trkpt lat="59.9515764" lon="17.72622">
        <ele>46.7612</ele>
        <time>2012-03-26T19:09:12Z</time>
      </trkpt>
      <trkpt lat="59.9515637" lon="17.7262604">
        <ele>46.7612</ele>
        <time>2012-03-26T19:09:13Z</time>
      </trkpt>
      <trkpt lat="59.9514861" lon="17.7264753">
        <ele>48.2034</ele>
        <time>2012-03-26T19:09:19Z</time>
      </trkpt>
      <trkpt lat="59.9514293" lon="17.726615">
        <ele>48.2034</ele>
        <time>2012-03-26T19:09:23Z</time>
      </trkpt>
      <trkpt lat="59.9514019" lon="17.7267409">
        <ele>48.2034</ele>
        <time>2012-03-26T19:09:26Z</time>
      </trkpt>
      <trkpt lat="59.9514319" lon="17.727036">
        <ele>48.684</ele>
        <time>2012-03-26T19:09:32Z</time>
      </trkpt>
      <trkpt lat="59.9514534" lon="17.7272883">
        <ele>48.684</ele>
        <time>2012-03-26T19:09:37Z</time>
      </trkpt>
      <trkpt lat="59.9514603" lon="17.7275303">
        <ele>49.1646</ele>
        <time>2012-03-26T19:09:42Z</time>
      </trkpt>
      <trkpt lat="59.9515173" lon="17.7277379">
        <ele>50.126</ele>
        <time>2012-03-26T19:09:47Z</time>
      </trkpt>
      <trkpt lat="59.9516101" lon="17.7278929">
        <ele>51.5679</ele>
        <time>2012-03-26T19:09:52Z</time>
      </trkpt>
      <trkpt lat="59.951673" lon="17.7279497">
        <ele>51.5679</ele>
        <time>2012-03-26T19:09:55Z</time>
      </trkpt>
      <trkpt lat="59.9518296" lon="17.727919">
        <ele>51.5679</ele>
        <time>2012-03-26T19:10:01Z</time>
      </trkpt>
      <trkpt lat="59.9519187" lon="17.7278643">
        <ele>49.1646</ele>
        <time>2012-03-26T19:10:05Z</time>
      </trkpt>
      <trkpt lat="59.9520042" lon="17.7277141">
        <ele>49.1646</ele>
        <time>2012-03-26T19:10:10Z</time>
      </trkpt>
      <trkpt lat="59.9520239" lon="17.7276181">
        <ele>48.684</ele>
        <time>2012-03-26T19:10:12Z</time>
      </trkpt>
      <trkpt lat="59.9520432" lon="17.7274145">
        <ele>50.6066</ele>
        <time>2012-03-26T19:10:16Z</time>
      </trkpt>
      <trkpt lat="59.9520836" lon="17.7271995">
        <ele>52.5292</ele>
        <time>2012-03-26T19:10:21Z</time>
      </trkpt>
      <trkpt lat="59.9520857" lon="17.7271515">
        <ele>52.5292</ele>
        <time>2012-03-26T19:10:22Z</time>
      </trkpt>
      <trkpt lat="59.9521197" lon="17.7269035">
        <ele>53.9712</ele>
        <time>2012-03-26T19:10:27Z</time>
      </trkpt>
      <trkpt lat="59.9521667" lon="17.7266884">
        <ele>53.9712</ele>
        <time>2012-03-26T19:10:32Z</time>
      </trkpt>
      <trkpt lat="59.9521985" lon="17.7266097">
        <ele>53.4905</ele>
        <time>2012-03-26T19:10:34Z</time>
      </trkpt>
      <trkpt lat="59.9522858" lon="17.7263203">
        <ele>52.5292</ele>
        <time>2012-03-26T19:10:41Z</time>
      </trkpt>
      <trkpt lat="59.9523601" lon="17.7261524">
        <ele>51.5679</ele>
        <time>2012-03-26T19:10:46Z</time>
      </trkpt>
      <trkpt lat="59.9524365" lon="17.7259592">
        <ele>50.6066</ele>
        <time>2012-03-26T19:10:51Z</time>
      </trkpt>
      <trkpt lat="59.9524906" lon="17.7258678">
        <ele>50.126</ele>
        <time>2012-03-26T19:10:54Z</time>
      </trkpt>
      <trkpt lat="59.9525575" lon="17.7257411">
        <ele>49.6453</ele>
        <time>2012-03-26T19:10:58Z</time>
      </trkpt>
      <trkpt lat="59.9526118" lon="17.7256747">
        <ele>48.684</ele>
        <time>2012-03-26T19:11:01Z</time>
      </trkpt>
      <trkpt lat="59.952708" lon="17.7254969">
        <ele>48.684</ele>
        <time>2012-03-26T19:11:07Z</time>
      </trkpt>
      <trkpt lat="59.9527253" lon="17.725467">
        <ele>48.684</ele>
        <time>2012-03-26T19:11:08Z</time>
      </trkpt>
      <trkpt lat="59.9527656" lon="17.7253934">
        <ele>49.1646</ele>
        <time>2012-03-26T19:11:10Z</time>
      </trkpt>
      <trkpt lat="59.9528611" lon="17.7252023">
        <ele>48.2034</ele>
        <time>2012-03-26T19:11:15Z</time>
      </trkpt>
      <trkpt lat="59.9528838" lon="17.725166">
        <ele>48.2034</ele>
        <time>2012-03-26T19:11:16Z</time>
      </trkpt>
      <trkpt lat="59.9529159" lon="17.7250629">
        <ele>46.7612</ele>
        <time>2012-03-26T19:11:19Z</time>
      </trkpt>
      <trkpt lat="59.9530003" lon="17.724896">
        <ele>45.3192</ele>
        <time>2012-03-26T19:11:24Z</time>
      </trkpt>
      <trkpt lat="59.9530802" lon="17.7247732">
        <ele>44.8386</ele>
        <time>2012-03-26T19:11:28Z</time>
      </trkpt>
      <trkpt lat="59.9531309" lon="17.7247309">
        <ele>44.358</ele>
        <time>2012-03-26T19:11:30Z</time>
      </trkpt>
      <trkpt lat="59.9532032" lon="17.7245489">
        <ele>43.3966</ele>
        <time>2012-03-26T19:11:35Z</time>
      </trkpt>
      <trkpt lat="59.9532676" lon="17.7244838">
        <ele>44.358</ele>
        <time>2012-03-26T19:11:39Z</time>
      </trkpt>
      <trkpt lat="59.9533669" lon="17.7243595">
        <ele>44.8386</ele>
        <time>2012-03-26T19:11:45Z</time>
      </trkpt>
      <trkpt lat="59.953466" lon="17.7241586">
        <ele>46.2806</ele>
        <time>2012-03-26T19:11:51Z</time>
      </trkpt>
      <trkpt lat="59.9535643" lon="17.7239509">
        <ele>49.6453</ele>
        <time>2012-03-26T19:11:57Z</time>
      </trkpt>
      <trkpt lat="59.9537002" lon="17.7238683">
        <ele>50.126</ele>
        <time>2012-03-26T19:12:03Z</time>
      </trkpt>
      <trkpt lat="59.9538238" lon="17.7237587">
        <ele>52.0486</ele>
        <time>2012-03-26T19:12:09Z</time>
      </trkpt>
      <trkpt lat="59.9539188" lon="17.7236333">
        <ele>53.0098</ele>
        <time>2012-03-26T19:12:14Z</time>
      </trkpt>
      <trkpt lat="59.9540163" lon="17.7234825">
        <ele>52.5292</ele>
        <time>2012-03-26T19:12:19Z</time>
      </trkpt>
      <trkpt lat="59.9540303" lon="17.7234531">
        <ele>52.5292</ele>
        <time>2012-03-26T19:12:20Z</time>
      </trkpt>
      <trkpt lat="59.9541232" lon="17.7232483">
        <ele>54.4518</ele>
        <time>2012-03-26T19:12:26Z</time>
      </trkpt>
      <trkpt lat="59.9542278" lon="17.7232037">
        <ele>54.4518</ele>
        <time>2012-03-26T19:12:30Z</time>
      </trkpt>
      <trkpt lat="59.9542985" lon="17.7232121">
        <ele>53.9712</ele>
        <time>2012-03-26T19:12:34Z</time>
      </trkpt>
      <trkpt lat="59.954427" lon="17.7233188">
        <ele>53.4905</ele>
        <time>2012-03-26T19:12:40Z</time>
      </trkpt>
      <trkpt lat="59.9545418" lon="17.7233837">
        <ele>53.0098</ele>
        <time>2012-03-26T19:12:45Z</time>
      </trkpt>
      <trkpt lat="59.9546316" lon="17.723441">
        <ele>52.0486</ele>
        <time>2012-03-26T19:12:50Z</time>
      </trkpt>
      <trkpt lat="59.9547046" lon="17.723522">
        <ele>52.5292</ele>
        <time>2012-03-26T19:12:54Z</time>
      </trkpt>
      <trkpt lat="59.954759" lon="17.7235586">
        <ele>53.9712</ele>
        <time>2012-03-26T19:12:56Z</time>
      </trkpt>
      <trkpt lat="59.954791" lon="17.7235903">
        <ele>54.4518</ele>
        <time>2012-03-26T19:12:58Z</time>
      </trkpt>
      <trkpt lat="59.9548827" lon="17.723604">
        <ele>51.5679</ele>
        <time>2012-03-26T19:13:03Z</time>
      </trkpt>
      <trkpt lat="59.9550706" lon="17.723553">
        <ele>51.0872</ele>
        <time>2012-03-26T19:13:09Z</time>
      </trkpt>
      <trkpt lat="59.9551738" lon="17.7234742">
        <ele>51.5679</ele>
        <time>2012-03-26T19:13:13Z</time>
      </trkpt>
      <trkpt lat="59.9552859" lon="17.7233603">
        <ele>51.0872</ele>
        <time>2012-03-26T19:13:18Z</time>
      </trkpt>
      <trkpt lat="59.9553567" lon="17.7233478">
        <ele>52.0486</ele>
        <time>2012-03-26T19:13:22Z</time>
      </trkpt>
      <trkpt lat="59.9554768" lon="17.7233802">
        <ele>52.0486</ele>
        <time>2012-03-26T19:13:27Z</time>
      </trkpt>
      <trkpt lat="59.955621" lon="17.7234785">
        <ele>50.6066</ele>
        <time>2012-03-26T19:13:33Z</time>
      </trkpt>
      <trkpt lat="59.9557033" lon="17.7235612">
        <ele>51.0872</ele>
        <time>2012-03-26T19:13:37Z</time>
      </trkpt>
      <trkpt lat="59.9558132" lon="17.7236477">
        <ele>50.126</ele>
        <time>2012-03-26T19:13:42Z</time>
      </trkpt>
      <trkpt lat="59.9559017" lon="17.7235498">
        <ele>52.0486</ele>
        <time>2012-03-26T19:13:46Z</time>
      </trkpt>
      <trkpt lat="59.9559898" lon="17.7233927">
        <ele>51.5679</ele>
        <time>2012-03-26T19:13:51Z</time>
      </trkpt>
      <trkpt lat="59.9560342" lon="17.7232867">
        <ele>52.0486</ele>
        <time>2012-03-26T19:13:54Z</time>
      </trkpt>
      <trkpt lat="59.9560665" lon="17.7231286">
        <ele>51.5679</ele>
        <time>2012-03-26T19:13:58Z</time>
      </trkpt>
      <trkpt lat="59.956067" lon="17.7230256">
        <ele>51.5679</ele>
        <time>2012-03-26T19:14:00Z</time>
      </trkpt>
      <trkpt lat="59.9560385" lon="17.7228433">
        <ele>50.6066</ele>
        <time>2012-03-26T19:14:04Z</time>
      </trkpt>
      <trkpt lat="59.9560311" lon="17.722681">
        <ele>50.6066</ele>
        <time>2012-03-26T19:14:08Z</time>
      </trkpt>
      <trkpt lat="59.9559654" lon="17.7224509">
        <ele>50.6066</ele>
        <time>2012-03-26T19:14:13Z</time>
      </trkpt>
      <trkpt lat="59.9559471" lon="17.7223558">
        <ele>50.6066</ele>
        <time>2012-03-26T19:14:15Z</time>
      </trkpt>
      <trkpt lat="59.9559167" lon="17.7220425">
        <ele>51.0872</ele>
        <time>2012-03-26T19:14:22Z</time>
      </trkpt>
      <trkpt lat="59.9558971" lon="17.7219078">
        <ele>51.0872</ele>
        <time>2012-03-26T19:14:25Z</time>
      </trkpt>
      <trkpt lat="59.9559514" lon="17.7216694">
        <ele>53.0098</ele>
        <time>2012-03-26T19:14:31Z</time>
      </trkpt>
      <trkpt lat="59.9559595" lon="17.7216461">
        <ele>53.0098</ele>
        <time>2012-03-26T19:14:32Z</time>
      </trkpt>
      <trkpt lat="59.9559924" lon="17.7214768">
        <ele>53.4905</ele>
        <time>2012-03-26T19:14:36Z</time>
      </trkpt>
      <trkpt lat="59.9559303" lon="17.7212907">
        <ele>53.4905</ele>
        <time>2012-03-26T19:14:40Z</time>
      </trkpt>
      <trkpt lat="59.9557451" lon="17.7213089">
        <ele>54.4518</ele>
        <time>2012-03-26T19:14:47Z</time>
      </trkpt>
      <trkpt lat="59.9556333" lon="17.7213891">
        <ele>55.4131</ele>
        <time>2012-03-26T19:14:52Z</time>
      </trkpt>
      <trkpt lat="59.9555389" lon="17.7214431">
        <ele>57.3358</ele>
        <time>2012-03-26T19:14:56Z</time>
      </trkpt>
      <trkpt lat="59.955476" lon="17.7214669">
        <ele>57.3358</ele>
        <time>2012-03-26T19:14:59Z</time>
      </trkpt>
      <trkpt lat="59.9554136" lon="17.7214519">
        <ele>57.8165</ele>
        <time>2012-03-26T19:15:02Z</time>
      </trkpt>
      <trkpt lat="59.9552937" lon="17.7214052">
        <ele>57.8165</ele>
        <time>2012-03-26T19:15:07Z</time>
      </trkpt>
      <trkpt lat="59.9551812" lon="17.7214027">
        <ele>59.2584</ele>
        <time>2012-03-26T19:15:12Z</time>
      </trkpt>
      <trkpt lat="59.9550865" lon="17.7214015">
        <ele>60.2197</ele>
        <time>2012-03-26T19:15:16Z</time>
      </trkpt>
      <trkpt lat="59.9549574" lon="17.721381">
        <ele>60.7003</ele>
        <time>2012-03-26T19:15:21Z</time>
      </trkpt>
      <trkpt lat="59.9548698" lon="17.7213084">
        <ele>59.2584</ele>
        <time>2012-03-26T19:15:25Z</time>
      </trkpt>
      <trkpt lat="59.9547914" lon="17.7211855">
        <ele>57.8165</ele>
        <time>2012-03-26T19:15:29Z</time>
      </trkpt>
      <trkpt lat="59.9547503" lon="17.7210255">
        <ele>56.8551</ele>
        <time>2012-03-26T19:15:33Z</time>
      </trkpt>
      <trkpt lat="59.9547461" lon="17.7207992">
        <ele>53.4905</ele>
        <time>2012-03-26T19:15:38Z</time>
      </trkpt>
      <trkpt lat="59.9547811" lon="17.720599">
        <ele>53.0098</ele>
        <time>2012-03-26T19:15:43Z</time>
      </trkpt>
      <trkpt lat="59.9547904" lon="17.7205688">
        <ele>53.0098</ele>
        <time>2012-03-26T19:15:44Z</time>
      </trkpt>
      <trkpt lat="59.9549304" lon="17.7204293">
        <ele>54.4518</ele>
        <time>2012-03-26T19:15:51Z</time>
      </trkpt>
      <trkpt lat="59.9550691" lon="17.7202895">
        <ele>54.9324</ele>
        <time>2012-03-26T19:15:57Z</time>
      </trkpt>
      <trkpt lat="59.9551543" lon="17.7201723">
        <ele>57.3358</ele>
        <time>2012-03-26T19:16:02Z</time>
      </trkpt>
      <trkpt lat="59.9552385" lon="17.720052">
        <ele>57.8165</ele>
        <time>2012-03-26T19:16:05Z</time>
      </trkpt>
      <trkpt lat="59.9553665" lon="17.719915">
        <ele>60.2197</ele>
        <time>2012-03-26T19:16:11Z</time>
      </trkpt>
      <trkpt lat="59.9554801" lon="17.7197947">
        <ele>59.7391</ele>
        <time>2012-03-26T19:16:17Z</time>
      </trkpt>
      <trkpt lat="59.9556325" lon="17.7197166">
        <ele>59.2584</ele>
        <time>2012-03-26T19:16:23Z</time>
      </trkpt>
      <trkpt lat="59.9557329" lon="17.7196332">
        <ele>58.7777</ele>
        <time>2012-03-26T19:16:27Z</time>
      </trkpt>
      <trkpt lat="59.955858" lon="17.7195141">
        <ele>59.2584</ele>
        <time>2012-03-26T19:16:32Z</time>
      </trkpt>
      <trkpt lat="59.9559015" lon="17.7194794">
        <ele>58.7777</ele>
        <time>2012-03-26T19:16:34Z</time>
      </trkpt>
      <trkpt lat="59.9560426" lon="17.7193343">
        <ele>57.8165</ele>
        <time>2012-03-26T19:16:40Z</time>
      </trkpt>
      <trkpt lat="59.9561437" lon="17.7191544">
        <ele>56.8551</ele>
        <time>2012-03-26T19:16:44Z</time>
      </trkpt>
      <trkpt lat="59.9562111" lon="17.7189721">
        <ele>55.8938</ele>
        <time>2012-03-26T19:16:48Z</time>
      </trkpt>
      <trkpt lat="59.9562751" lon="17.7188298">
        <ele>56.3745</ele>
        <time>2012-03-26T19:16:52Z</time>
      </trkpt>
      <trkpt lat="59.9562401" lon="17.7186327">
        <ele>55.8938</ele>
        <time>2012-03-26T19:16:57Z</time>
      </trkpt>
      <trkpt lat="59.9561607" lon="17.718427">
        <ele>54.9324</ele>
        <time>2012-03-26T19:17:02Z</time>
      </trkpt>
      <trkpt lat="59.9561403" lon="17.7183915">
        <ele>54.4518</ele>
        <time>2012-03-26T19:17:03Z</time>
      </trkpt>
      <trkpt lat="59.9560761" lon="17.7182211">
        <ele>53.4905</ele>
        <time>2012-03-26T19:17:07Z</time>
      </trkpt>
      <trkpt lat="59.9559746" lon="17.7180315">
        <ele>53.4905</ele>
        <time>2012-03-26T19:17:12Z</time>
      </trkpt>
      <trkpt lat="59.9558876" lon="17.7178937">
        <ele>54.4518</ele>
        <time>2012-03-26T19:17:16Z</time>
      </trkpt>
      <trkpt lat="59.9557923" lon="17.7176481">
        <ele>56.8551</ele>
        <time>2012-03-26T19:17:21Z</time>
      </trkpt>
      <trkpt lat="59.9557344" lon="17.7174958">
        <ele>58.2971</ele>
        <time>2012-03-26T19:17:25Z</time>
      </trkpt>
      <trkpt lat="59.9556527" lon="17.7172993">
        <ele>60.2197</ele>
        <time>2012-03-26T19:17:30Z</time>
      </trkpt>
      <trkpt lat="59.9555838" lon="17.7170985">
        <ele>61.181</ele>
        <time>2012-03-26T19:17:35Z</time>
      </trkpt>
      <trkpt lat="59.9555322" lon="17.7168699">
        <ele>62.1423</ele>
        <time>2012-03-26T19:17:40Z</time>
      </trkpt>
      <trkpt lat="59.9554967" lon="17.7166111">
        <ele>63.1036</ele>
        <time>2012-03-26T19:17:45Z</time>
      </trkpt>
      <trkpt lat="59.9554676" lon="17.7164127">
        <ele>63.1036</ele>
        <time>2012-03-26T19:17:49Z</time>
      </trkpt>
      <trkpt lat="59.9554524" lon="17.7161561">
        <ele>60.7003</ele>
        <time>2012-03-26T19:17:54Z</time>
      </trkpt>
      <trkpt lat="59.955424" lon="17.7159559">
        <ele>59.7391</ele>
        <time>2012-03-26T19:17:58Z</time>
      </trkpt>
      <trkpt lat="59.9554218" lon="17.7158487">
        <ele>60.2197</ele>
        <time>2012-03-26T19:18:00Z</time>
      </trkpt>
      <trkpt lat="59.9554018" lon="17.7155609">
        <ele>60.2197</ele>
        <time>2012-03-26T19:18:05Z</time>
      </trkpt>
      <trkpt lat="59.9553683" lon="17.7153579">
        <ele>57.3358</ele>
        <time>2012-03-26T19:18:09Z</time>
      </trkpt>
      <trkpt lat="59.9553589" lon="17.7152486">
        <ele>55.8938</ele>
        <time>2012-03-26T19:18:11Z</time>
      </trkpt>
      <trkpt lat="59.9553247" lon="17.7150115">
        <ele>53.4905</ele>
        <time>2012-03-26T19:18:16Z</time>
      </trkpt>
      <trkpt lat="59.9553165" lon="17.714968">
        <ele>53.0098</ele>
        <time>2012-03-26T19:18:17Z</time>
      </trkpt>
      <trkpt lat="59.9552638" lon="17.7147608">
        <ele>52.0486</ele>
        <time>2012-03-26T19:18:22Z</time>
      </trkpt>
      <trkpt lat="59.9552304" lon="17.7146029">
        <ele>51.0872</ele>
        <time>2012-03-26T19:18:25Z</time>
      </trkpt>
      <trkpt lat="59.9551986" lon="17.714436">
        <ele>50.6066</ele>
        <time>2012-03-26T19:18:29Z</time>
      </trkpt>
      <trkpt lat="59.9551926" lon="17.7142572">
        <ele>50.6066</ele>
        <time>2012-03-26T19:18:33Z</time>
      </trkpt>
      <trkpt lat="59.9551862" lon="17.7140661">
        <ele>50.126</ele>
        <time>2012-03-26T19:18:37Z</time>
      </trkpt>
      <trkpt lat="59.9552226" lon="17.7139716">
        <ele>49.1646</ele>
        <time>2012-03-26T19:18:39Z</time>
      </trkpt>
      <trkpt lat="59.9553174" lon="17.7138911">
        <ele>48.2034</ele>
        <time>2012-03-26T19:18:43Z</time>
      </trkpt>
    </trkseg>
  </trk>
</gpx>